Waltonville, Pennsylvania
Current Conditions -  °F | °C
As of 10:56 PM on Thursday 20 Nov 2014 (Local Time) from KMDT Reporting Station
Scattered Clouds Scattered Clouds  
Wind Chill: 21°   Ceiling: Unl
Heat Index: 30°   Visibility: 10mi
Dew Point: 11°   Wind: 12mph
Humidity: 45%   Direction: 290°WNW
Pressure: 30.09"   Gusts: NA
Location:  40.2988°N, 76.709°W
Report Text: KMDT 210356Z 29010KT 10SM FEW060 SCT120 M01/M12 A3009 RMK AO2 SLP194 T10111117
Loading
Personal Weather Stations






























Interactive Weather Map New forecast layout! Learn more

10-Day Weather Forecast

Advertisements
Track Severe Weather on mobile